sensor_id;sensor_type;location;lat;lon;timestamp;P1;durP1;ratioP1;P2;durP2;ratioP2
4786;SDS011;62338;48.832;9.422;2022-09-06T00:00:03;6.10;;;3.20;;
4786;SDS011;62338;48.832;9.422;2022-09-06T00:02:07;6.20;;;3.07;;
4786;SDS011;62338;48.832;9.422;2022-09-06T00:04:09;8.03;;;3.30;;
4786;SDS011;62338;48.832;9.422;2022-09-06T00:06:16;7.80;;;3.40;;
4786;SDS011;62338;48.832;9.422;2022-09-06T00:08:20;8.30;;;3.70;;
4786;SDS011;62338;48.832;9.422;2022-09-06T00:10:22;6.83;;;2.80;;
4786;SDS011;62338;48.832;9.422;2022-09-06T00:12:23;5.37;;;3.10;;
4786;SDS011;62338;48.832;9.422;2022-09-06T00:14:25;7.93;;;3.10;;
4786;SDS011;62338;48.832;9.422;2022-09-06T00:16:27;4.83;;;2.73;;
4786;SDS011;62338;48.832;9.422;2022-09-06T00:18:30;5.67;;;3.30;;
4786;SDS011;62338;48.832;9.422;2022-09-06T00:20:32;5.13;;;3.10;;
4786;SDS011;62338;48.832;9.422;2022-09-06T00:22:35;5.30;;;3.17;;
4786;SDS011;62338;48.832;9.422;2022-09-06T00:24:37;13.70;;;4.27;;
4786;SDS011;62338;48.832;9.422;2022-09-06T00:26:39;5.10;;;2.77;;
4786;SDS011;62338;48.832;9.422;2022-09-06T00:28:41;5.03;;;3.00;;
4786;SDS011;62338;48.832;9.422;2022-09-06T00:30:43;10.10;;;3.00;;
4786;SDS011;62338;48.832;9.422;2022-09-06T00:32:45;5.63;;;2.80;;
4786;SDS011;62338;48.832;9.422;2022-09-06T00:34:47;6.30;;;3.40;;
4786;SDS011;62338;48.832;9.422;2022-09-06T00:36:48;5.70;;;3.60;;
4786;SDS011;62338;48.832;9.422;2022-09-06T00:38:50;8.50;;;3.87;;
4786;SDS011;62338;48.832;9.422;2022-09-06T00:40:52;5.80;;;3.10;;
4786;SDS011;62338;48.832;9.422;2022-09-06T00:42:54;7.83;;;3.63;;
4786;SDS011;62338;48.832;9.422;2022-09-06T00:44:57;6.30;;;3.10;;
4786;SDS011;62338;48.832;9.422;2022-09-06T00:47:00;7.13;;;3.00;;
4786;SDS011;62338;48.832;9.422;2022-09-06T00:49:03;12.20;;;3.50;;
4786;SDS011;62338;48.832;9.422;2022-09-06T00:51:09;5.27;;;2.70;;
4786;SDS011;62338;48.832;9.422;2022-09-06T00:53:13;7.60;;;2.77;;
4786;SDS011;62338;48.832;9.422;2022-09-06T00:55:15;7.07;;;3.30;;
4786;SDS011;62338;48.832;9.422;2022-09-06T00:57:17;8.73;;;3.57;;
4786;SDS011;62338;48.832;9.422;2022-09-06T00:59:19;5.57;;;3.33;;
4786;SDS011;62338;48.832;9.422;2022-09-06T01:01:22;6.77;;;3.33;;
4786;SDS011;62338;48.832;9.422;2022-09-06T01:03:23;5.30;;;3.63;;
4786;SDS011;62338;48.832;9.422;2022-09-06T01:05:38;4.60;;;3.10;;
4786;SDS011;62338;48.832;9.422;2022-09-06T01:08:20;5.00;;;3.03;;
4786;SDS011;62338;48.832;9.422;2022-09-06T01:17:47;6.93;;;3.43;;
4786;SDS011;62338;48.832;9.422;2022-09-06T01:29:44;6.63;;;3.30;;
4786;SDS011;62338;48.832;9.422;2022-09-06T01:31:51;5.50;;;2.80;;
4786;SDS011;62338;48.832;9.422;2022-09-06T01:34:16;5.80;;;3.97;;
4786;SDS011;62338;48.832;9.422;2022-09-06T01:37:18;5.10;;;3.00;;
4786;SDS011;62338;48.832;9.422;2022-09-06T01:39:13;4.97;;;2.70;;
4786;SDS011;62338;48.832;9.422;2022-09-06T01:41:27;7.97;;;3.23;;
4786;SDS011;62338;48.832;9.422;2022-09-06T01:43:30;7.40;;;3.20;;
4786;SDS011;62338;48.832;9.422;2022-09-06T02:04:14;5.77;;;3.00;;
4786;SDS011;62338;48.832;9.422;2022-09-06T02:06:28;5.63;;;3.10;;
4786;SDS011;62338;48.832;9.422;2022-09-06T02:08:56;5.27;;;3.50;;
4786;SDS011;62338;48.832;9.422;2022-09-06T02:11:04;5.70;;;3.13;;
4786;SDS011;62338;48.832;9.422;2022-09-06T02:13:08;4.87;;;2.73;;
4786;SDS011;62338;48.832;9.422;2022-09-06T02:15:13;4.90;;;3.33;;
4786;SDS011;62338;48.832;9.422;2022-09-06T02:17:20;7.40;;;3.30;;
4786;SDS011;62338;48.832;9.422;2022-09-06T02:19:34;5.37;;;3.10;;
4786;SDS011;62338;48.832;9.422;2022-09-06T02:21:42;7.23;;;3.07;;
4786;SDS011;62338;48.832;9.422;2022-09-06T02:23:46;4.67;;;2.97;;
4786;SDS011;62338;48.832;9.422;2022-09-06T02:25:50;9.40;;;3.10;;
4786;SDS011;62338;48.832;9.422;2022-09-06T02:27:55;8.40;;;3.17;;
4786;SDS011;62338;48.832;9.422;2022-09-06T02:29:57;4.77;;;3.10;;
4786;SDS011;62338;48.832;9.422;2022-09-06T02:34:12;6.37;;;3.20;;
4786;SDS011;62338;48.832;9.422;2022-09-06T02:36:16;8.73;;;3.07;;
4786;SDS011;62338;48.832;9.422;2022-09-06T02:38:23;5.50;;;3.23;;
4786;SDS011;62338;48.832;9.422;2022-09-06T02:40:27;6.70;;;3.33;;
4786;SDS011;62338;48.832;9.422;2022-09-06T02:42:29;6.10;;;3.00;;
4786;SDS011;62338;48.832;9.422;2022-09-06T02:44:31;4.90;;;3.53;;
4786;SDS011;62338;48.832;9.422;2022-09-06T02:46:33;5.17;;;3.20;;
4786;SDS011;62338;48.832;9.422;2022-09-06T02:48:35;5.60;;;3.67;;
4786;SDS011;62338;48.832;9.422;2022-09-06T02:50:36;6.20;;;3.50;;
4786;SDS011;62338;48.832;9.422;2022-09-06T02:52:38;8.83;;;3.17;;
4786;SDS011;62338;48.832;9.422;2022-09-06T02:54:41;6.13;;;3.50;;
4786;SDS011;62338;48.832;9.422;2022-09-06T02:56:43;7.33;;;3.80;;
4786;SDS011;62338;48.832;9.422;2022-09-06T02:58:50;5.63;;;3.30;;
4786;SDS011;62338;48.832;9.422;2022-09-06T03:00:53;9.00;;;3.77;;
4786;SDS011;62338;48.832;9.422;2022-09-06T03:02:55;6.70;;;3.50;;
4786;SDS011;62338;48.832;9.422;2022-09-06T03:04:58;6.33;;;3.07;;
4786;SDS011;62338;48.832;9.422;2022-09-06T03:06:59;5.73;;;3.80;;
4786;SDS011;62338;48.832;9.422;2022-09-06T03:09:01;6.10;;;3.30;;
4786;SDS011;62338;48.832;9.422;2022-09-06T03:11:03;6.50;;;4.70;;
4786;SDS011;62338;48.832;9.422;2022-09-06T03:13:05;7.40;;;4.10;;
4786;SDS011;62338;48.832;9.422;2022-09-06T03:15:07;8.80;;;4.17;;
4786;SDS011;62338;48.832;9.422;2022-09-06T03:17:10;10.63;;;4.63;;
4786;SDS011;62338;48.832;9.422;2022-09-06T03:19:11;13.63;;;5.97;;
4786;SDS011;62338;48.832;9.422;2022-09-06T03:21:17;13.23;;;5.30;;
4786;SDS011;62338;48.832;9.422;2022-09-06T03:23:20;13.53;;;6.13;;
4786;SDS011;62338;48.832;9.422;2022-09-06T03:25:24;6.87;;;4.97;;
4786;SDS011;62338;48.832;9.422;2022-09-06T03:27:26;8.73;;;6.30;;
4786;SDS011;62338;48.832;9.422;2022-09-06T03:29:28;11.33;;;6.37;;
4786;SDS011;62338;48.832;9.422;2022-09-06T03:31:30;9.47;;;6.50;;
4786;SDS011;62338;48.832;9.422;2022-09-06T03:33:32;10.80;;;5.87;;
4786;SDS011;62338;48.832;9.422;2022-09-06T03:35:34;9.70;;;6.63;;
4786;SDS011;62338;48.832;9.422;2022-09-06T03:37:36;10.83;;;6.37;;
4786;SDS011;62338;48.832;9.422;2022-09-06T03:39:39;10.50;;;6.80;;
4786;SDS011;62338;48.832;9.422;2022-09-06T03:41:40;9.80;;;6.67;;
4786;SDS011;62338;48.832;9.422;2022-09-06T03:43:42;9.90;;;6.97;;
4786;SDS011;62338;48.832;9.422;2022-09-06T03:45:45;8.70;;;6.50;;
4786;SDS011;62338;48.832;9.422;2022-09-06T03:47:48;8.90;;;6.40;;
4786;SDS011;62338;48.832;9.422;2022-09-06T03:49:50;11.17;;;7.10;;
4786;SDS011;62338;48.832;9.422;2022-09-06T03:51:51;6.80;;;5.80;;
4786;SDS011;62338;48.832;9.422;2022-09-06T03:53:53;12.20;;;7.30;;
4786;SDS011;62338;48.832;9.422;2022-09-06T03:55:56;8.43;;;6.07;;
4786;SDS011;62338;48.832;9.422;2022-09-06T03:57:58;12.10;;;6.67;;
4786;SDS011;62338;48.832;9.422;2022-09-06T04:00:02;11.10;;;7.03;;
4786;SDS011;62338;48.832;9.422;2022-09-06T04:02:04;9.60;;;6.03;;
4786;SDS011;62338;48.832;9.422;2022-09-06T04:04:06;10.80;;;7.37;;
4786;SDS011;62338;48.832;9.422;2022-09-06T04:06:08;9.30;;;7.20;;
4786;SDS011;62338;48.832;9.422;2022-09-06T04:08:10;11.30;;;6.60;;
4786;SDS011;62338;48.832;9.422;2022-09-06T04:10:12;9.40;;;6.70;;
4786;SDS011;62338;48.832;9.422;2022-09-06T04:12:15;14.93;;;7.87;;
4786;SDS011;62338;48.832;9.422;2022-09-06T04:14:16;12.10;;;7.33;;
4786;SDS011;62338;48.832;9.422;2022-09-06T04:16:18;13.80;;;7.23;;
4786;SDS011;62338;48.832;9.422;2022-09-06T04:18:20;13.70;;;7.03;;
4786;SDS011;62338;48.832;9.422;2022-09-06T04:20:23;12.60;;;7.70;;
4786;SDS011;62338;48.832;9.422;2022-09-06T04:22:24;14.43;;;7.93;;
4786;SDS011;62338;48.832;9.422;2022-09-06T04:24:26;12.30;;;7.63;;
4786;SDS011;62338;48.832;9.422;2022-09-06T04:26:28;10.77;;;7.40;;
4786;SDS011;62338;48.832;9.422;2022-09-06T04:28:30;8.70;;;7.17;;
4786;SDS011;62338;48.832;9.422;2022-09-06T04:30:31;10.93;;;7.20;;
4786;SDS011;62338;48.832;9.422;2022-09-06T04:32:33;10.77;;;7.37;;
4786;SDS011;62338;48.832;9.422;2022-09-06T04:34:35;10.43;;;7.53;;
4786;SDS011;62338;48.832;9.422;2022-09-06T04:36:37;14.63;;;8.13;;
4786;SDS011;62338;48.832;9.422;2022-09-06T04:38:40;15.20;;;7.30;;
4786;SDS011;62338;48.832;9.422;2022-09-06T04:40:44;12.17;;;8.07;;
4786;SDS011;62338;48.832;9.422;2022-09-06T04:42:46;10.90;;;7.57;;
4786;SDS011;62338;48.832;9.422;2022-09-06T04:44:48;12.63;;;6.80;;
4786;SDS011;62338;48.832;9.422;2022-09-06T04:46:50;9.87;;;6.83;;
4786;SDS011;62338;48.832;9.422;2022-09-06T04:49:09;9.50;;;7.87;;
4786;SDS011;62338;48.832;9.422;2022-09-06T04:51:11;9.47;;;6.60;;
4786;SDS011;62338;48.832;9.422;2022-09-06T04:53:15;9.17;;;6.50;;
4786;SDS011;62338;48.832;9.422;2022-09-06T04:55:17;13.27;;;7.10;;
4786;SDS011;62338;48.832;9.422;2022-09-06T04:57:19;9.60;;;6.60;;
4786;SDS011;62338;48.832;9.422;2022-09-06T04:59:20;11.30;;;7.10;;
4786;SDS011;62338;48.832;9.422;2022-09-06T05:01:22;11.27;;;7.20;;
4786;SDS011;62338;48.832;9.422;2022-09-06T05:03:26;14.90;;;7.00;;
4786;SDS011;62338;48.832;9.422;2022-09-06T05:05:28;13.30;;;7.20;;
4786;SDS011;62338;48.832;9.422;2022-09-06T05:07:32;12.77;;;7.90;;
4786;SDS011;62338;48.832;9.422;2022-09-06T05:09:38;10.03;;;7.43;;
4786;SDS011;62338;48.832;9.422;2022-09-06T05:11:39;11.10;;;7.00;;
4786;SDS011;62338;48.832;9.422;2022-09-06T05:13:41;10.67;;;8.37;;
4786;SDS011;62338;48.832;9.422;2022-09-06T05:15:43;14.00;;;7.53;;
4786;SDS011;62338;48.832;9.422;2022-09-06T05:17:45;14.43;;;7.23;;
4786;SDS011;62338;48.832;9.422;2022-09-06T05:19:47;11.67;;;6.80;;
4786;SDS011;62338;48.832;9.422;2022-09-06T05:21:49;11.90;;;6.33;;
4786;SDS011;62338;48.832;9.422;2022-09-06T05:23:51;12.80;;;7.60;;
4786;SDS011;62338;48.832;9.422;2022-09-06T05:25:58;11.00;;;7.03;;
4786;SDS011;62338;48.832;9.422;2022-09-06T05:28:00;9.47;;;6.03;;
4786;SDS011;62338;48.832;9.422;2022-09-06T05:30:02;8.60;;;6.93;;
4786;SDS011;62338;48.832;9.422;2022-09-06T05:32:05;8.77;;;6.60;;
4786;SDS011;62338;48.832;9.422;2022-09-06T05:34:06;14.20;;;8.00;;
4786;SDS011;62338;48.832;9.422;2022-09-06T05:36:08;10.03;;;6.63;;
4786;SDS011;62338;48.832;9.422;2022-09-06T05:38:10;9.50;;;6.90;;
4786;SDS011;62338;48.832;9.422;2022-09-06T05:40:12;9.43;;;6.57;;
4786;SDS011;62338;48.832;9.422;2022-09-06T05:42:14;8.40;;;6.27;;
4786;SDS011;62338;48.832;9.422;2022-09-06T05:44:19;7.80;;;6.17;;
4786;SDS011;62338;48.832;9.422;2022-09-06T05:46:21;8.90;;;5.67;;
4786;SDS011;62338;48.832;9.422;2022-09-06T05:48:23;11.87;;;5.70;;
4786;SDS011;62338;48.832;9.422;2022-09-06T05:50:24;10.23;;;5.50;;
4786;SDS011;62338;48.832;9.422;2022-09-06T05:52:27;7.53;;;5.50;;
4786;SDS011;62338;48.832;9.422;2022-09-06T05:54:29;14.57;;;6.77;;
4786;SDS011;62338;48.832;9.422;2022-09-06T05:56:30;6.87;;;5.00;;
4786;SDS011;62338;48.832;9.422;2022-09-06T05:58:32;8.70;;;5.70;;
4786;SDS011;62338;48.832;9.422;2022-09-06T06:00:34;7.37;;;4.80;;
4786;SDS011;62338;48.832;9.422;2022-09-06T06:02:36;6.63;;;4.57;;
4786;SDS011;62338;48.832;9.422;2022-09-06T06:04:38;10.30;;;4.77;;
4786;SDS011;62338;48.832;9.422;2022-09-06T06:06:40;7.27;;;4.97;;
4786;SDS011;62338;48.832;9.422;2022-09-06T06:08:42;5.70;;;4.50;;
4786;SDS011;62338;48.832;9.422;2022-09-06T06:10:43;6.73;;;4.53;;
4786;SDS011;62338;48.832;9.422;2022-09-06T06:12:45;7.30;;;4.90;;
4786;SDS011;62338;48.832;9.422;2022-09-06T06:14:47;7.60;;;4.07;;
4786;SDS011;62338;48.832;9.422;2022-09-06T06:16:49;7.43;;;4.53;;
4786;SDS011;62338;48.832;9.422;2022-09-06T06:18:51;6.37;;;4.30;;
4786;SDS011;62338;48.832;9.422;2022-09-06T06:21:05;6.60;;;4.70;;
4786;SDS011;62338;48.832;9.422;2022-09-06T06:23:13;10.10;;;4.70;;
4786;SDS011;62338;48.832;9.422;2022-09-06T06:25:15;5.60;;;4.10;;
4786;SDS011;62338;48.832;9.422;2022-09-06T06:27:17;5.90;;;4.13;;
4786;SDS011;62338;48.832;9.422;2022-09-06T06:29:19;8.07;;;4.23;;
4786;SDS011;62338;48.832;9.422;2022-09-06T06:31:21;7.40;;;4.90;;
4786;SDS011;62338;48.832;9.422;2022-09-06T06:33:23;5.33;;;4.07;;
4786;SDS011;62338;48.832;9.422;2022-09-06T06:35:25;10.83;;;4.00;;
4786;SDS011;62338;48.832;9.422;2022-09-06T06:37:27;7.90;;;3.90;;
4786;SDS011;62338;48.832;9.422;2022-09-06T06:39:28;5.37;;;4.17;;
4786;SDS011;62338;48.832;9.422;2022-09-06T06:41:30;7.90;;;3.57;;
4786;SDS011;62338;48.832;9.422;2022-09-06T06:43:33;5.53;;;3.50;;
4786;SDS011;62338;48.832;9.422;2022-09-06T06:45:38;6.77;;;4.53;;
4786;SDS011;62338;48.832;9.422;2022-09-06T06:47:40;4.83;;;3.50;;
4786;SDS011;62338;48.832;9.422;2022-09-06T06:49:41;7.70;;;4.57;;
4786;SDS011;62338;48.832;9.422;2022-09-06T06:51:43;5.20;;;4.13;;
4786;SDS011;62338;48.832;9.422;2022-09-06T06:53:45;7.23;;;3.50;;
4786;SDS011;62338;48.832;9.422;2022-09-06T06:55:48;6.50;;;4.10;;
4786;SDS011;62338;48.832;9.422;2022-09-06T06:57:50;5.67;;;3.60;;
4786;SDS011;62338;48.832;9.422;2022-09-06T06:59:52;7.30;;;3.50;;
4786;SDS011;62338;48.832;9.422;2022-09-06T07:01:54;5.40;;;3.77;;
4786;SDS011;62338;48.832;9.422;2022-09-06T07:03:56;7.63;;;4.37;;
4786;SDS011;62338;48.832;9.422;2022-09-06T07:05:58;7.87;;;4.50;;
4786;SDS011;62338;48.832;9.422;2022-09-06T07:08:15;6.43;;;4.20;;
4786;SDS011;62338;48.832;9.422;2022-09-06T07:10:17;9.87;;;3.60;;
4786;SDS011;62338;48.832;9.422;2022-09-06T07:12:34;6.67;;;4.00;;
4786;SDS011;62338;48.832;9.422;2022-09-06T07:14:36;5.60;;;3.50;;
4786;SDS011;62338;48.832;9.422;2022-09-06T07:16:38;6.57;;;4.20;;
4786;SDS011;62338;48.832;9.422;2022-09-06T07:18:40;5.30;;;3.60;;
4786;SDS011;62338;48.832;9.422;2022-09-06T07:20:43;6.77;;;4.10;;
4786;SDS011;62338;48.832;9.422;2022-09-06T07:23:05;4.93;;;2.70;;
4786;SDS011;62338;48.832;9.422;2022-09-06T07:25:27;6.30;;;3.50;;
4786;SDS011;62338;48.832;9.422;2022-09-06T07:27:29;8.00;;;3.20;;
4786;SDS011;62338;48.832;9.422;2022-09-06T07:29:47;7.23;;;2.90;;
4786;SDS011;62338;48.832;9.422;2022-09-06T07:31:48;5.20;;;2.70;;
4786;SDS011;62338;48.832;9.422;2022-09-06T07:34:11;6.30;;;3.57;;
4786;SDS011;62338;48.832;9.422;2022-09-06T07:36:13;6.07;;;3.40;;
4786;SDS011;62338;48.832;9.422;2022-09-06T07:38:15;5.30;;;3.27;;
4786;SDS011;62338;48.832;9.422;2022-09-06T07:40:16;9.90;;;3.87;;
4786;SDS011;62338;48.832;9.422;2022-09-06T07:42:18;5.50;;;3.20;;
4786;SDS011;62338;48.832;9.422;2022-09-06T07:44:20;4.80;;;3.47;;
4786;SDS011;62338;48.832;9.422;2022-09-06T07:46:22;6.47;;;3.53;;
4786;SDS011;62338;48.832;9.422;2022-09-06T07:48:24;8.83;;;4.43;;
4786;SDS011;62338;48.832;9.422;2022-09-06T07:50:28;6.63;;;3.57;;
4786;SDS011;62338;48.832;9.422;2022-09-06T07:52:49;6.37;;;3.63;;
4786;SDS011;62338;48.832;9.422;2022-09-06T07:55:06;8.80;;;3.80;;
4786;SDS011;62338;48.832;9.422;2022-09-06T07:57:09;6.53;;;3.63;;
4786;SDS011;62338;48.832;9.422;2022-09-06T07:59:12;7.80;;;3.20;;
4786;SDS011;62338;48.832;9.422;2022-09-06T08:01:15;7.53;;;2.93;;
4786;SDS011;62338;48.832;9.422;2022-09-06T08:03:29;7.33;;;3.60;;
4786;SDS011;62338;48.832;9.422;2022-09-06T08:05:31;6.33;;;3.37;;
4786;SDS011;62338;48.832;9.422;2022-09-06T08:07:54;13.73;;;3.43;;
4786;SDS011;62338;48.832;9.422;2022-09-06T08:10:16;5.10;;;3.25;;
4786;SDS011;62338;48.832;9.422;2022-09-06T08:12:19;8.18;;;3.30;;
4786;SDS011;62338;48.832;9.422;2022-09-06T08:14:22;7.95;;;3.40;;
4786;SDS011;62338;48.832;9.422;2022-09-06T08:16:25;5.30;;;3.45;;
4786;SDS011;62338;48.832;9.422;2022-09-06T08:18:28;6.05;;;3.25;;
4786;SDS011;62338;48.832;9.422;2022-09-06T08:20:30;9.02;;;3.60;;
4786;SDS011;62338;48.832;9.422;2022-09-06T08:22:32;10.00;;;3.45;;
4786;SDS011;62338;48.832;9.422;2022-09-06T08:24:34;6.60;;;3.00;;
4786;SDS011;62338;48.832;9.422;2022-09-06T08:26:36;12.57;;;3.67;;
4786;SDS011;62338;48.832;9.422;2022-09-06T08:28:45;5.57;;;3.15;;
4786;SDS011;62338;48.832;9.422;2022-09-06T08:30:47;6.28;;;3.22;;
4786;SDS011;62338;48.832;9.422;2022-09-06T08:32:49;6.22;;;3.42;;
4786;SDS011;62338;48.832;9.422;2022-09-06T08:34:52;5.35;;;3.25;;
4786;SDS011;62338;48.832;9.422;2022-09-06T08:36:54;7.07;;;3.63;;
4786;SDS011;62338;48.832;9.422;2022-09-06T08:38:56;6.00;;;3.25;;
4786;SDS011;62338;48.832;9.422;2022-09-06T08:41:07;5.40;;;3.33;;
4786;SDS011;62338;48.832;9.422;2022-09-06T08:43:16;6.85;;;3.70;;
4786;SDS011;62338;48.832;9.422;2022-09-06T08:45:20;6.13;;;3.13;;
4786;SDS011;62338;48.832;9.422;2022-09-06T08:47:23;6.57;;;3.65;;
4786;SDS011;62338;48.832;9.422;2022-09-06T08:49:26;6.07;;;2.88;;
4786;SDS011;62338;48.832;9.422;2022-09-06T08:51:53;7.13;;;3.20;;
4786;SDS011;62338;48.832;9.422;2022-09-06T08:54:20;7.07;;;3.35;;
4786;SDS011;62338;48.832;9.422;2022-09-06T08:56:33;9.60;;;3.45;;
4786;SDS011;62338;48.832;9.422;2022-09-06T09:01:11;6.22;;;3.90;;
4786;SDS011;62338;48.832;9.422;2022-09-06T09:03:20;7.68;;;3.75;;
4786;SDS011;62338;48.832;9.422;2022-09-06T09:05:33;7.40;;;3.60;;
4786;SDS011;62338;48.832;9.422;2022-09-06T09:10:15;6.78;;;3.60;;
4786;SDS011;62338;48.832;9.422;2022-09-06T09:12:24;10.55;;;3.42;;
4786;SDS011;62338;48.832;9.422;2022-09-06T09:14:32;6.57;;;3.17;;
4786;SDS011;62338;48.832;9.422;2022-09-06T09:16:38;10.27;;;3.30;;
4786;SDS011;62338;48.832;9.422;2022-09-06T09:18:41;8.02;;;3.53;;
4786;SDS011;62338;48.832;9.422;2022-09-06T09:20:46;6.72;;;3.38;;
4786;SDS011;62338;48.832;9.422;2022-09-06T09:22:48;6.35;;;3.50;;
4786;SDS011;62338;48.832;9.422;2022-09-06T09:24:50;10.45;;;3.88;;
4786;SDS011;62338;48.832;9.422;2022-09-06T09:26:54;8.70;;;3.70;;
4786;SDS011;62338;48.832;9.422;2022-09-06T09:29:04;10.50;;;3.70;;
4786;SDS011;62338;48.832;9.422;2022-09-06T09:31:11;6.47;;;3.70;;
4786;SDS011;62338;48.832;9.422;2022-09-06T09:33:27;6.65;;;3.97;;
4786;SDS011;62338;48.832;9.422;2022-09-06T09:35:35;6.55;;;3.85;;
4786;SDS011;62338;48.832;9.422;2022-09-06T09:37:40;12.65;;;3.60;;
4786;SDS011;62338;48.832;9.422;2022-09-06T09:39:45;6.22;;;3.28;;
4786;SDS011;62338;48.832;9.422;2022-09-06T09:41:49;9.00;;;3.28;;
4786;SDS011;62338;48.832;9.422;2022-09-06T09:43:53;6.88;;;3.42;;
4786;SDS011;62338;48.832;9.422;2022-09-06T09:48:19;9.18;;;3.65;;
4786;SDS011;62338;48.832;9.422;2022-09-06T09:52:31;9.30;;;3.20;;
4786;SDS011;62338;48.832;9.422;2022-09-06T09:54:37;6.95;;;3.53;;
4786;SDS011;62338;48.832;9.422;2022-09-06T09:58:53;11.43;;;3.53;;
4786;SDS011;62338;48.832;9.422;2022-09-06T10:03:25;9.73;;;3.60;;
4786;SDS011;62338;48.832;9.422;2022-09-06T10:05:31;7.30;;;3.20;;
4786;SDS011;62338;48.832;9.422;2022-09-06T10:07:33;15.43;;;3.22;;
4786;SDS011;62338;48.832;9.422;2022-09-06T10:09:42;9.05;;;3.42;;
4786;SDS011;62338;48.832;9.422;2022-09-06T10:14:08;5.55;;;3.00;;
4786;SDS011;62338;48.832;9.422;2022-09-06T10:16:11;7.95;;;3.55;;
4786;SDS011;62338;48.832;9.422;2022-09-06T10:18:27;10.30;;;3.50;;
4786;SDS011;62338;48.832;9.422;2022-09-06T10:20:37;15.07;;;3.72;;
4786;SDS011;62338;48.832;9.422;2022-09-06T10:22:50;10.57;;;3.30;;
4786;SDS011;62338;48.832;9.422;2022-09-06T10:27:22;11.52;;;4.13;;
4786;SDS011;62338;48.832;9.422;2022-09-06T10:29:31;12.10;;;3.72;;
4786;SDS011;62338;48.832;9.422;2022-09-06T10:31:59;10.40;;;3.60;;
4786;SDS011;62338;48.832;9.422;2022-09-06T10:36:05;11.13;;;3.58;;
4786;SDS011;62338;48.832;9.422;2022-09-06T10:42:55;8.05;;;3.78;;
4786;SDS011;62338;48.832;9.422;2022-09-06T10:47:32;10.23;;;3.42;;
4786;SDS011;62338;48.832;9.422;2022-09-06T10:49:48;17.92;;;4.13;;
4786;SDS011;62338;48.832;9.422;2022-09-06T10:51:59;10.07;;;2.80;;
4786;SDS011;62338;48.832;9.422;2022-09-06T10:54:10;7.78;;;2.90;;
4786;SDS011;62338;48.832;9.422;2022-09-06T10:56:21;6.35;;;3.25;;
4786;SDS011;62338;48.832;9.422;2022-09-06T10:58:30;9.30;;;3.38;;
4786;SDS011;62338;48.832;9.422;2022-09-06T11:01:41;10.20;;;4.05;;
4786;SDS011;62338;48.832;9.422;2022-09-06T11:04:01;10.23;;;3.70;;
4786;SDS011;62338;48.832;9.422;2022-09-06T11:06:13;10.40;;;3.65;;
4786;SDS011;62338;48.832;9.422;2022-09-06T11:08:21;8.15;;;4.13;;
4786;SDS011;62338;48.832;9.422;2022-09-06T11:10:45;10.35;;;3.50;;
4786;SDS011;62338;48.832;9.422;2022-09-06T11:12:53;10.23;;;3.80;;
4786;SDS011;62338;48.832;9.422;2022-09-06T11:15:04;12.57;;;4.03;;
4786;SDS011;62338;48.832;9.422;2022-09-06T11:17:18;6.03;;;3.60;;
4786;SDS011;62338;48.832;9.422;2022-09-06T11:19:28;11.27;;;4.03;;
4786;SDS011;62338;48.832;9.422;2022-09-06T11:24:31;10.75;;;3.90;;
4786;SDS011;62338;48.832;9.422;2022-09-06T11:31:31;9.73;;;4.00;;
4786;SDS011;62338;48.832;9.422;2022-09-06T11:34:05;12.00;;;4.13;;
4786;SDS011;62338;48.832;9.422;2022-09-06T11:36:29;15.35;;;4.25;;
4786;SDS011;62338;48.832;9.422;2022-09-06T11:38:35;9.00;;;4.20;;
4786;SDS011;62338;48.832;9.422;2022-09-06T11:41:20;10.07;;;3.55;;
4786;SDS011;62338;48.832;9.422;2022-09-06T11:49:37;17.73;;;4.70;;
4786;SDS011;62338;48.832;9.422;2022-09-06T11:51:42;10.63;;;4.07;;
4786;SDS011;62338;48.832;9.422;2022-09-06T11:58:00;7.03;;;3.28;;
4786;SDS011;62338;48.832;9.422;2022-09-06T12:00:04;10.43;;;3.63;;
4786;SDS011;62338;48.832;9.422;2022-09-06T12:09:26;9.07;;;3.95;;
4786;SDS011;62338;48.832;9.422;2022-09-06T12:15:51;10.38;;;3.38;;
4786;SDS011;62338;48.832;9.422;2022-09-06T12:17:55;13.38;;;3.05;;
4786;SDS011;62338;48.832;9.422;2022-09-06T12:19:59;12.25;;;3.97;;
4786;SDS011;62338;48.832;9.422;2022-09-06T12:26:51;8.85;;;3.40;;
4786;SDS011;62338;48.832;9.422;2022-09-06T12:29:09;11.30;;;3.05;;
4786;SDS011;62338;48.832;9.422;2022-09-06T12:31:28;9.60;;;3.35;;
4786;SDS011;62338;48.832;9.422;2022-09-06T12:33:35;11.60;;;3.53;;
4786;SDS011;62338;48.832;9.422;2022-09-06T12:35:39;8.90;;;3.35;;
4786;SDS011;62338;48.832;9.422;2022-09-06T12:37:57;9.30;;;3.33;;
4786;SDS011;62338;48.832;9.422;2022-09-06T12:40:00;7.55;;;3.40;;
4786;SDS011;62338;48.832;9.422;2022-09-06T12:42:06;7.78;;;2.97;;
4786;SDS011;62338;48.832;9.422;2022-09-06T12:44:13;10.93;;;3.30;;
4786;SDS011;62338;48.832;9.422;2022-09-06T12:46:16;11.68;;;3.35;;
4786;SDS011;62338;48.832;9.422;2022-09-06T12:48:28;11.70;;;3.60;;
4786;SDS011;62338;48.832;9.422;2022-09-06T12:50:33;11.90;;;3.80;;
4786;SDS011;62338;48.832;9.422;2022-09-06T12:54:57;10.60;;;4.15;;
4786;SDS011;62338;48.832;9.422;2022-09-06T12:57:12;9.98;;;4.07;;
4786;SDS011;62338;48.832;9.422;2022-09-06T12:59:22;13.73;;;3.97;;
4786;SDS011;62338;48.832;9.422;2022-09-06T13:01:33;8.10;;;3.95;;
4786;SDS011;62338;48.832;9.422;2022-09-06T13:03:42;9.98;;;3.92;;
4786;SDS011;62338;48.832;9.422;2022-09-06T13:05:58;8.95;;;3.75;;
4786;SDS011;62338;48.832;9.422;2022-09-06T13:08:05;15.50;;;4.35;;
4786;SDS011;62338;48.832;9.422;2022-09-06T13:10:16;15.20;;;3.65;;
4786;SDS011;62338;48.832;9.422;2022-09-06T13:14:28;8.93;;;3.85;;
4786;SDS011;62338;48.832;9.422;2022-09-06T13:16:35;9.90;;;3.80;;
4786;SDS011;62338;48.832;9.422;2022-09-06T13:18:39;6.32;;;3.42;;
4786;SDS011;62338;48.832;9.422;2022-09-06T13:20:41;14.25;;;3.40;;
4786;SDS011;62338;48.832;9.422;2022-09-06T13:22:44;10.32;;;3.28;;
4786;SDS011;62338;48.832;9.422;2022-09-06T13:24:48;9.15;;;3.20;;
4786;SDS011;62338;48.832;9.422;2022-09-06T13:26:49;8.05;;;2.78;;
4786;SDS011;62338;48.832;9.422;2022-09-06T13:28:52;7.65;;;2.83;;
4786;SDS011;62338;48.832;9.422;2022-09-06T13:33:22;6.45;;;3.17;;
4786;SDS011;62338;48.832;9.422;2022-09-06T13:35:26;7.18;;;3.40;;
4786;SDS011;62338;48.832;9.422;2022-09-06T13:37:31;9.00;;;3.42;;
4786;SDS011;62338;48.832;9.422;2022-09-06T13:39:37;10.85;;;2.63;;
4786;SDS011;62338;48.832;9.422;2022-09-06T13:41:41;5.40;;;3.30;;
4786;SDS011;62338;48.832;9.422;2022-09-06T13:43:44;8.40;;;2.80;;
4786;SDS011;62338;48.832;9.422;2022-09-06T13:45:48;9.27;;;2.88;;
4786;SDS011;62338;48.832;9.422;2022-09-06T13:48:08;7.63;;;2.60;;
4786;SDS011;62338;48.832;9.422;2022-09-06T13:50:28;7.05;;;3.10;;
4786;SDS011;62338;48.832;9.422;2022-09-06T13:52:30;8.88;;;3.15;;
4786;SDS011;62338;48.832;9.422;2022-09-06T13:54:32;15.05;;;3.53;;
4786;SDS011;62338;48.832;9.422;2022-09-06T13:56:34;11.35;;;3.65;;
4786;SDS011;62338;48.832;9.422;2022-09-06T13:58:37;10.00;;;3.55;;
4786;SDS011;62338;48.832;9.422;2022-09-06T14:00:38;7.70;;;3.00;;
4786;SDS011;62338;48.832;9.422;2022-09-06T14:02:41;6.15;;;4.30;;
4786;SDS011;62338;48.832;9.422;2022-09-06T14:04:43;11.48;;;5.28;;
4786;SDS011;62338;48.832;9.422;2022-09-06T14:06:46;10.90;;;3.45;;
4786;SDS011;62338;48.832;9.422;2022-09-06T14:08:48;11.00;;;3.53;;
4786;SDS011;62338;48.832;9.422;2022-09-06T14:11:07;7.55;;;3.47;;
4786;SDS011;62338;48.832;9.422;2022-09-06T14:13:10;13.02;;;4.20;;
4786;SDS011;62338;48.832;9.422;2022-09-06T14:15:12;9.50;;;3.72;;
4786;SDS011;62338;48.832;9.422;2022-09-06T14:17:14;8.13;;;3.65;;
4786;SDS011;62338;48.832;9.422;2022-09-06T14:19:16;13.25;;;3.80;;
4786;SDS011;62338;48.832;9.422;2022-09-06T14:21:18;8.82;;;3.30;;
4786;SDS011;62338;48.832;9.422;2022-09-06T14:23:20;14.45;;;3.60;;
4786;SDS011;62338;48.832;9.422;2022-09-06T14:25:22;8.65;;;3.50;;
4786;SDS011;62338;48.832;9.422;2022-09-06T14:27:24;12.05;;;3.78;;
4786;SDS011;62338;48.832;9.422;2022-09-06T14:29:26;9.60;;;3.92;;
4786;SDS011;62338;48.832;9.422;2022-09-06T14:31:28;14.88;;;4.10;;
4786;SDS011;62338;48.832;9.422;2022-09-06T14:33:30;12.90;;;5.10;;